Time,TemperatureF,DewpointF,PressureIn,WindDirection,WindDirectionDegrees,WindSpeedMPH,WindSpeedGustMPH,Humidity,HourlyPrecipIn,Conditions,Clouds,dailyrainin,SoftwareType,DateUTC
2013-04-25 00:02:00,45.5,19.5,29.32,NNE,31,0.0,0.0,35,0.00,,CLR,0.00,VWS V14.00,2013-04-25 07:02:00,
2013-04-25 00:08:00,45.9,19.1,29.32,NNE,31,0.0,0.0,34,0.00,,CLR,0.00,VWS V14.00,2013-04-25 07:08:00,
2013-04-25 00:13:00,45.9,19.1,29.32,NNE,31,0.0,0.0,34,0.00,,CLR,0.00,VWS V14.00,2013-04-25 07:13:00,
2013-04-25 00:19:00,45.7,18.9,29.32,NNE,31,0.0,0.0,34,0.00,,CLR,0.00,VWS V14.00,2013-04-25 07:19:00,
2013-04-25 00:24:00,45.5,18.8,29.32,NNE,31,0.0,0.0,34,0.00,,CLR,0.00,VWS V14.00,2013-04-25 07:24:00,
2013-04-25 00:29:00,45.5,18.8,29.32,NNE,31,0.0,0.0,34,0.00,,CLR,0.00,VWS V14.00,2013-04-25 07:29:00,
2013-04-25 00:34:00,45.3,18.6,29.32,NNE,31,0.0,0.0,34,0.00,,CLR,0.00,VWS V14.00,2013-04-25 07:34:00,
2013-04-25 00:40:00,45.1,18.5,29.32,ENE,66,2.2,2.2,34,0.00,,CLR,0.00,VWS V14.00,2013-04-25 07:40:00,
2013-04-25 00:46:00,45.5,18.1,29.32,NNE,33,0.0,0.0,33,0.00,,CLR,0.00,VWS V14.00,2013-04-25 07:46:00,
2013-04-25 00:52:00,45.5,18.1,29.32,NNE,28,0.0,0.0,33,0.00,,CLR,0.00,VWS V14.00,2013-04-25 07:52:00,
2013-04-25 00:57:00,45.5,18.1,29.32,NNE,28,0.0,0.0,33,0.00,,CLR,0.00,VWS V14.00,2013-04-25 07:57:00,
2013-04-25 01:02:00,45.1,17.8,29.32,NNE,28,0.0,0.0,33,0.00,,CLR,0.00,VWS V14.00,2013-04-25 08:02:00,
2013-04-25 01:08:00,45.0,17.6,29.32,NNE,28,0.0,0.0,33,0.00,,CLR,0.00,VWS V14.00,2013-04-25 08:08:00,
2013-04-25 01:14:00,44.6,18.0,29.32,NNE,28,0.0,0.0,34,0.00,,CLR,0.00,VWS V14.00,2013-04-25 08:14:00,
2013-04-25 01:20:00,44.1,18.2,29.32,NNE,28,0.0,0.0,35,0.00,,CLR,0.00,VWS V14.00,2013-04-25 08:20:00,
2013-04-25 01:25:00,43.7,17.9,29.32,NNE,28,0.0,0.0,35,0.00,,CLR,0.00,VWS V14.00,2013-04-25 08:25:00,
2013-04-25 01:31:00,43.5,19.0,29.32,NNE,28,0.0,0.0,37,0.00,,CLR,0.00,VWS V14.00,2013-04-25 08:31:00,
2013-04-25 01:36:00,43.2,19.3,29.32,NNE,28,0.0,0.0,38,0.00,,CLR,0.00,VWS V14.00,2013-04-25 08:36:00,
2013-04-25 01:42:00,42.8,19.0,29.32,NNE,28,0.0,0.0,38,0.00,,CLR,0.00,VWS V14.00,2013-04-25 08:42:00,
2013-04-25 01:47:00,42.8,19.0,29.32,NNE,27,0.0,0.0,38,0.00,,CLR,0.00,VWS V14.00,2013-04-25 08:47:00,
2013-04-25 01:52:00,42.6,18.8,29.32,NNE,27,0.0,0.0,38,0.00,,CLR,0.00,VWS V14.00,2013-04-25 08:52:00,
2013-04-25 01:58:00,42.4,18.6,29.32,NNE,27,0.0,0.0,38,0.00,,CLR,0.00,VWS V14.00,2013-04-25 08:58:00,
2013-04-25 02:03:00,42.4,19.2,29.32,NNE,27,2.7,2.7,39,0.00,,CLR,0.00,VWS V14.00,2013-04-25 09:03:00,
2013-04-25 02:09:00,42.4,19.2,29.32,NNE,27,0.0,2.2,39,0.00,,CLR,0.00,VWS V14.00,2013-04-25 09:09:00,
2013-04-25 02:14:00,42.4,19.2,29.32,NNE,24,0.0,0.0,39,0.00,,CLR,0.00,VWS V14.00,2013-04-25 09:14:00,
2013-04-25 02:20:00,42.4,19.2,29.32,NNE,24,0.0,0.0,39,0.00,,CLR,0.00,VWS V14.00,2013-04-25 09:20:00,
2013-04-25 02:26:00,42.3,19.1,29.32,NNE,24,0.0,0.0,39,0.00,,CLR,0.00,VWS V14.00,2013-04-25 09:26:00,
2013-04-25 02:31:00,42.3,19.1,29.32,NNE,24,0.0,0.0,39,0.00,,CLR,0.00,VWS V14.00,2013-04-25 09:31:00,
2013-04-25 02:37:00,42.1,18.9,29.32,NNE,24,0.0,0.0,39,0.00,,CLR,0.00,VWS V14.00,2013-04-25 09:37:00,
2013-04-25 02:42:00,42.1,18.9,29.32,NNE,24,0.0,0.0,39,0.00,,CLR,0.00,VWS V14.00,2013-04-25 09:42:00,
2013-04-25 02:48:00,41.7,19.2,29.32,NNE,24,0.0,0.0,40,0.00,,CLR,0.00,VWS V14.00,2013-04-25 09:48:00,
2013-04-25 02:54:00,41.7,19.2,29.32,NNE,24,0.0,0.0,40,0.00,,CLR,0.00,VWS V14.00,2013-04-25 09:54:00,
2013-04-25 02:59:00,41.5,19.0,29.32,NNE,24,0.0,0.0,40,0.00,,CLR,0.00,VWS V14.00,2013-04-25 09:59:00,
2013-04-25 03:05:00,41.2,18.7,29.32,NNE,24,0.0,0.0,40,0.00,,CLR,0.00,VWS V14.00,2013-04-25 10:05:00,
2013-04-25 03:10:00,41.0,18.5,29.32,NNE,24,0.0,0.0,40,0.00,,CLR,0.00,VWS V14.00,2013-04-25 10:10:00,
2013-04-25 03:15:00,40.8,19.0,29.32,NNE,24,0.0,0.0,41,0.00,,CLR,0.00,VWS V14.00,2013-04-25 10:15:00,
2013-04-25 03:20:00,40.6,18.8,29.32,NNE,24,0.0,0.0,41,0.00,,CLR,0.00,VWS V14.00,2013-04-25 10:20:00,
2013-04-25 03:26:00,40.5,18.6,29.32,NNE,24,0.0,0.0,41,0.00,,CLR,0.00,VWS V14.00,2013-04-25 10:26:00,
2013-04-25 03:31:00,40.3,18.5,29.32,NNE,24,0.0,0.0,41,0.00,,CLR,0.00,VWS V14.00,2013-04-25 10:31:00,
2013-04-25 03:37:00,39.9,18.7,29.32,NNE,24,0.0,0.0,42,0.00,,CLR,0.00,VWS V14.00,2013-04-25 10:37:00,
2013-04-25 03:43:00,39.7,18.5,29.32,NNE,24,0.0,0.0,42,0.00,,CLR,0.00,VWS V14.00,2013-04-25 10:43:00,
2013-04-25 03:48:00,39.7,18.5,29.32,NNE,24,0.0,0.0,42,0.00,,CLR,0.00,VWS V14.00,2013-04-25 10:48:00,
2013-04-25 03:54:00,39.6,18.9,29.32,NNE,24,0.0,2.7,43,0.00,,CLR,0.00,VWS V14.00,2013-04-25 10:54:00,
2013-04-25 03:59:00,39.6,18.9,29.32,NNE,24,0.0,0.0,43,0.00,,CLR,0.00,VWS V14.00,2013-04-25 10:59:00,
2013-04-25 04:05:00,39.6,18.9,29.32,NNE,24,0.0,0.0,43,0.00,,CLR,0.00,VWS V14.00,2013-04-25 11:05:00,
2013-04-25 04:11:00,39.6,18.9,29.32,NNE,24,0.0,0.0,43,0.00,,CLR,0.00,VWS V14.00,2013-04-25 11:11:00,
2013-04-25 04:16:00,39.4,19.3,29.32,NNE,24,0.0,0.0,44,0.00,,CLR,0.00,VWS V14.00,2013-04-25 11:16:00,
2013-04-25 04:21:00,39.2,19.1,29.32,NNE,24,0.0,0.0,44,0.00,,CLR,0.00,VWS V14.00,2013-04-25 11:21:00,
2013-04-25 04:26:00,39.0,19.0,29.32,NNE,24,0.0,0.0,44,0.00,,CLR,0.00,VWS V14.00,2013-04-25 11:26:00,
2013-04-25 04:32:00,38.8,19.3,29.32,NNE,24,0.0,0.0,45,0.00,,CLR,0.00,VWS V14.00,2013-04-25 11:32:00,
2013-04-25 04:38:00,38.7,19.2,29.32,NNE,24,0.0,0.0,45,0.00,,CLR,0.00,VWS V14.00,2013-04-25 11:38:00,
2013-04-25 04:44:00,38.5,19.0,29.32,NNE,24,0.0,0.0,45,0.00,,CLR,0.00,VWS V14.00,2013-04-25 11:44:00,
2013-04-25 04:50:00,38.3,19.4,29.32,NNE,24,0.0,0.0,46,0.00,,CLR,0.00,VWS V14.00,2013-04-25 11:50:00,
2013-04-25 04:55:00,38.1,19.2,29.32,NNE,24,0.0,0.0,46,0.00,,CLR,0.00,VWS V14.00,2013-04-25 11:55:00,
2013-04-25 05:01:00,37.9,19.0,29.32,NNE,24,0.0,0.0,46,0.00,,CLR,0.00,VWS V14.00,2013-04-25 12:01:00,
2013-04-25 05:06:00,37.9,19.5,29.32,NNE,24,0.0,0.0,47,0.00,,CLR,0.00,VWS V14.00,2013-04-25 12:06:00,
2013-04-25 05:12:00,37.9,19.5,29.32,NNE,24,0.0,0.0,47,0.00,,CLR,0.00,VWS V14.00,2013-04-25 12:12:00,
2013-04-25 05:18:00,38.1,20.2,29.32,NNE,24,0.0,0.0,48,0.00,,CLR,0.00,VWS V14.00,2013-04-25 12:18:00,
2013-04-25 05:23:00,38.1,20.2,29.32,NNE,24,0.0,0.0,48,0.00,,CLR,0.00,VWS V14.00,2013-04-25 12:23:00,
2013-04-25 05:29:00,37.9,20.0,29.32,NNE,24,0.0,0.0,48,0.00,,CLR,0.00,VWS V14.00,2013-04-25 12:29:00,
2013-04-25 05:35:00,37.9,20.5,29.32,NNE,24,0.0,0.0,49,0.00,,CLR,0.00,VWS V14.00,2013-04-25 12:35:00,
2013-04-25 05:40:00,37.9,20.5,29.32,NNE,24,0.0,0.0,49,0.00,,CLR,0.00,VWS V14.00,2013-04-25 12:40:00,
2013-04-25 05:46:00,38.1,20.7,29.32,NNE,24,0.0,0.0,49,0.00,,CLR,0.00,VWS V14.00,2013-04-25 12:46:00,
2013-04-25 05:51:00,38.1,20.7,29.32,NNE,24,0.0,0.0,49,0.00,,CLR,0.00,VWS V14.00,2013-04-25 12:51:00,
2013-04-25 05:57:00,37.9,20.5,29.32,NNE,24,0.0,0.0,49,0.00,,CLR,0.00,VWS V14.00,2013-04-25 12:57:00,
2013-04-25 06:03:00,37.9,20.5,29.32,NNE,24,0.0,0.0,49,0.00,,CLR,0.00,VWS V14.00,2013-04-25 13:03:00,
2013-04-25 06:08:00,37.9,20.5,29.32,NNE,24,0.0,0.0,49,0.00,,CLR,0.00,VWS V14.00,2013-04-25 13:08:00,
2013-04-25 06:14:00,37.6,20.6,29.32,NNE,24,0.0,0.0,50,0.00,,CLR,0.00,VWS V14.00,2013-04-25 13:14:00,
2013-04-25 06:19:00,37.6,20.6,29.32,NNE,24,0.0,0.0,50,0.00,,CLR,0.00,VWS V14.00,2013-04-25 13:19:00,
2013-04-25 06:25:00,37.4,20.5,29.32,NNE,24,0.0,0.0,50,0.00,,CLR,0.00,VWS V14.00,2013-04-25 13:25:00,
2013-04-25 06:31:00,37.4,20.5,29.32,NNE,24,0.0,0.0,50,0.00,,CLR,0.00,VWS V14.00,2013-04-25 13:31:00,
2013-04-25 06:36:00,37.4,20.5,29.32,NNE,24,0.0,0.0,50,0.00,,CLR,0.00,VWS V14.00,2013-04-25 13:36:00,
2013-04-25 06:42:00,37.4,20.5,29.32,NNE,24,0.0,0.0,50,0.00,,CLR,0.00,VWS V14.00,2013-04-25 13:42:00,
2013-04-25 06:47:00,37.6,21.1,29.32,NNE,24,0.0,0.0,51,0.00,,CLR,0.00,VWS V14.00,2013-04-25 13:47:00,
2013-04-25 06:53:00,37.6,21.1,29.32,NNE,24,0.0,0.0,51,0.00,,CLR,0.00,VWS V14.00,2013-04-25 13:53:00,
2013-04-25 06:58:00,37.9,21.4,29.32,NNE,24,0.0,0.0,51,0.00,,CLR,0.00,VWS V14.00,2013-04-25 13:58:00,
2013-04-25 07:04:00,38.1,22.1,29.32,NNE,25,0.0,0.0,52,0.00,,CLR,0.00,VWS V14.00,2013-04-25 14:04:00,
2013-04-25 07:09:00,38.3,22.2,29.32,NNE,24,0.0,0.0,52,0.00,,CLR,0.00,VWS V14.00,2013-04-25 14:09:00,
2013-04-25 07:14:00,38.5,22.4,29.32,NNE,25,0.0,0.0,52,0.00,,CLR,0.00,VWS V14.00,2013-04-25 14:14:00,
2013-04-25 07:20:00,38.8,23.2,29.32,NNE,24,0.0,0.0,53,0.00,,CLR,0.00,VWS V14.00,2013-04-25 14:20:00,
2013-04-25 07:25:00,39.2,23.5,29.32,NNE,25,0.0,0.0,53,0.00,,CLR,0.00,VWS V14.00,2013-04-25 14:25:00,
2013-04-25 07:31:00,39.7,24.0,29.32,NNE,24,0.0,0.0,53,0.00,,CLR,0.00,VWS V14.00,2013-04-25 14:31:00,
2013-04-25 07:36:00,40.1,24.8,29.32,NNE,25,0.0,0.0,54,0.00,,CLR,0.00,VWS V14.00,2013-04-25 14:36:00,
2013-04-25 07:42:00,40.8,25.5,29.32,NNE,24,0.0,0.0,54,0.00,,CLR,0.00,VWS V14.00,2013-04-25 14:42:00,
2013-04-25 07:48:00,41.5,26.1,29.32,NNE,24,0.0,0.0,54,0.00,,CLR,0.00,VWS V14.00,2013-04-25 14:48:00,
2013-04-25 07:53:00,42.3,26.8,29.32,NNE,24,0.0,0.0,54,0.00,,CLR,0.00,VWS V14.00,2013-04-25 14:53:00,
2013-04-25 07:59:00,43.0,27.0,29.32,NNE,24,0.0,0.0,53,0.00,,CLR,0.00,VWS V14.00,2013-04-25 14:59:00,
2013-04-25 08:04:00,44.1,27.6,29.32,ESE,119,0.0,4.0,52,0.00,,CLR,0.00,VWS V14.00,2013-04-25 15:04:00,
2013-04-25 08:10:00,44.8,27.3,29.32,ESE,119,0.0,0.0,50,0.00,,CLR,0.00,VWS V14.00,2013-04-25 15:10:00,
2013-04-25 08:16:00,45.9,26.8,29.32,ESE,119,0.0,0.0,47,0.00,,CLR,0.00,VWS V14.00,2013-04-25 15:16:00,
2013-04-25 08:21:00,46.4,25.7,29.32,ESE,119,0.0,0.0,44,0.00,,CLR,0.00,VWS V14.00,2013-04-25 15:21:00,
2013-04-25 08:27:00,47.1,24.6,29.32,ESE,120,0.0,0.0,41,0.00,,CLR,0.00,VWS V14.00,2013-04-25 15:27:00,
2013-04-25 08:32:00,47.5,24.4,29.32,ESE,120,0.0,0.0,40,0.00,,CLR,0.00,VWS V14.00,2013-04-25 15:32:00,
2013-04-25 08:38:00,48.4,24.0,29.32,ESE,120,0.0,0.0,38,0.00,,CLR,0.00,VWS V14.00,2013-04-25 15:38:00,
2013-04-25 08:43:00,48.9,23.8,29.32,ESE,120,0.0,0.0,37,0.00,,CLR,0.00,VWS V14.00,2013-04-25 15:43:00,
2013-04-25 08:48:00,49.3,24.1,29.32,ESE,120,0.0,0.0,37,0.00,,CLR,0.00,VWS V14.00,2013-04-25 15:48:00,
2013-04-25 08:53:00,49.6,23.1,29.32,ESE,120,0.0,0.0,35,0.00,,CLR,0.00,VWS V14.00,2013-04-25 15:53:00,
2013-04-25 08:59:00,50.2,22.2,29.32,ESE,120,2.2,2.2,33,0.00,,CLR,0.00,VWS V14.00,2013-04-25 15:59:00,
2013-04-25 09:04:00,50.7,22.0,29.32,ESE,119,0.0,0.0,32,0.00,,CLR,0.00,VWS V14.00,2013-04-25 16:04:00,
2013-04-25 09:10:00,51.3,20.9,29.32,ESE,119,0.0,0.0,30,0.00,,CLR,0.00,VWS V14.00,2013-04-25 16:10:00,
2013-04-25 09:16:00,51.4,21.1,29.32,ESE,120,0.0,0.0,30,0.00,,CLR,0.00,VWS V14.00,2013-04-25 16:16:00,
2013-04-25 09:21:00,51.8,21.4,29.32,ESE,120,0.0,2.2,30,0.00,,CLR,0.00,VWS V14.00,2013-04-25 16:21:00,
2013-04-25 09:26:00,52.2,20.9,29.32,ESE,120,0.0,0.0,29,0.00,,CLR,0.00,VWS V14.00,2013-04-25 16:26:00,
2013-04-25 09:31:00,52.5,21.2,29.32,ESE,120,0.0,0.0,29,0.00,,CLR,0.00,VWS V14.00,2013-04-25 16:31:00,
2013-04-25 09:37:00,53.1,21.7,29.32,WNW,289,0.0,4.0,29,0.00,,CLR,0.00,VWS V14.00,2013-04-25 16:37:00,
2013-04-25 09:42:00,53.6,21.3,29.32,WSW,253,0.0,0.0,28,0.00,,CLR,0.00,VWS V14.00,2013-04-25 16:42:00,
2013-04-25 09:48:00,54.1,20.9,29.32,SE,133,0.0,0.0,27,0.00,,CLR,0.00,VWS V14.00,2013-04-25 16:48:00,
2013-04-25 09:54:00,54.5,21.2,29.32,West,274,2.7,3.6,27,0.00,,CLR,0.00,VWS V14.00,2013-04-25 16:54:00,
2013-04-25 09:59:00,55.0,21.7,29.32,West,274,0.0,0.0,27,0.00,,CLR,0.00,VWS V14.00,2013-04-25 16:59:00,
2013-04-25 10:05:00,55.8,21.4,29.32,West,274,0.0,0.0,26,0.00,,CLR,0.00,VWS V14.00,2013-04-25 17:05:00,
2013-04-25 10:10:00,56.3,21.9,29.32,WNW,284,0.0,0.0,26,0.00,,CLR,0.00,VWS V14.00,2013-04-25 17:10:00,
2013-04-25 10:16:00,56.8,22.3,29.32,West,266,0.0,0.0,26,0.00,,CLR,0.00,VWS V14.00,2013-04-25 17:16:00,
2013-04-25 10:22:00,57.2,21.7,29.32,NW,316,4.0,4.5,25,0.00,,CLR,0.00,VWS V14.00,2013-04-25 17:22:00,
2013-04-25 10:27:00,57.9,22.3,29.32,SSW,203,2.7,3.6,25,0.00,,CLR,0.00,VWS V14.00,2013-04-25 17:27:00,
2013-04-25 10:33:00,58.6,22.9,29.32,NW,321,3.6,4.0,25,0.00,,CLR,0.00,VWS V14.00,2013-04-25 17:33:00,
2013-04-25 10:38:00,59.4,22.6,29.32,SSW,202,0.0,0.0,24,0.00,,CLR,0.00,VWS V14.00,2013-04-25 17:38:00,
2013-04-25 10:44:00,60.4,23.5,29.32,WNW,295,0.0,3.6,24,0.00,,CLR,0.00,VWS V14.00,2013-04-25 17:44:00,
2013-04-25 10:49:00,61.2,24.1,29.32,SW,236,0.0,3.1,24,0.00,,CLR,0.00,VWS V14.00,2013-04-25 17:49:00,
2013-04-25 10:55:00,62.1,24.9,29.32,WNW,291,0.0,2.7,24,0.00,,CLR,0.00,VWS V14.00,2013-04-25 17:55:00,
2013-04-25 11:00:00,62.6,24.3,29.32,NNW,328,3.6,3.6,23,0.00,,CLR,0.00,VWS V14.00,2013-04-25 18:00:00,
2013-04-25 11:05:00,63.0,22.5,29.32,SSW,201,0.0,2.7,21,0.00,,CLR,0.00,VWS V14.00,2013-04-25 18:05:00,
2013-04-25 11:11:00,63.1,22.6,29.32,WSW,240,6.3,6.3,21,0.00,,CLR,0.00,VWS V14.00,2013-04-25 18:11:00,
2013-04-25 11:16:00,63.7,23.0,29.32,SSW,207,0.0,3.1,21,0.00,,CLR,0.00,VWS V14.00,2013-04-25 18:16:00,
2013-04-25 11:22:00,64.6,22.6,29.32,NNW,328,4.0,4.0,20,0.00,,CLR,0.00,VWS V14.00,2013-04-25 18:22:00,
2013-04-25 11:27:00,65.1,23.1,29.32,West,278,3.1,3.1,20,0.00,,CLR,0.00,VWS V14.00,2013-04-25 18:27:00,
2013-04-25 11:32:00,65.3,23.2,29.32,West,265,0.0,3.6,20,0.00,,CLR,0.00,VWS V14.00,2013-04-25 18:32:00,
2013-04-25 11:37:00,65.3,23.2,29.32,SSW,203,0.0,2.7,20,0.00,,CLR,0.00,VWS V14.00,2013-04-25 18:37:00,
2013-04-25 11:43:00,65.8,23.7,29.32,NNW,330,3.6,3.6,20,0.00,,CLR,0.00,VWS V14.00,2013-04-25 18:43:00,
2013-04-25 11:48:00,66.2,24.0,29.32,NNW,329,3.6,4.9,20,0.00,,CLR,0.00,VWS V14.00,2013-04-25 18:48:00,
2013-04-25 11:53:00,66.4,20.3,29.32,SSW,209,3.6,4.5,17,0.00,,CLR,0.00,VWS V14.00,2013-04-25 18:53:00,
2013-04-25 11:59:00,66.7,20.6,29.32,SSW,200,2.7,2.7,17,0.00,,CLR,0.00,VWS V14.00,2013-04-25 18:59:00,
2013-04-25 12:05:00,66.7,20.6,29.32,NW,304,2.7,4.0,17,0.00,,CLR,0.00,VWS V14.00,2013-04-25 19:05:00,
2013-04-25 12:11:00,66.6,20.4,29.32,NNW,345,2.7,3.6,17,0.00,,CLR,0.00,VWS V14.00,2013-04-25 19:11:00,
2013-04-25 12:16:00,67.1,20.9,29.32,SSW,197,2.7,3.6,17,0.00,,CLR,0.00,VWS V14.00,2013-04-25 19:16:00,
2013-04-25 12:22:00,67.6,21.3,29.32,SW,221,4.9,4.9,17,0.00,,CLR,0.00,VWS V14.00,2013-04-25 19:22:00,
2013-04-25 12:27:00,68.0,21.6,29.32,WSW,241,2.7,4.9,17,0.00,,CLR,0.00,VWS V14.00,2013-04-25 19:27:00,
2013-04-25 12:33:00,68.4,21.9,29.32,WNW,282,2.2,3.1,17,0.00,,CLR,0.00,VWS V14.00,2013-04-25 19:33:00,
2013-04-25 12:38:00,68.4,21.9,29.32,NW,311,3.6,3.6,17,0.00,,CLR,0.00,VWS V14.00,2013-04-25 19:38:00,
2013-04-25 12:43:00,68.5,22.0,29.32,West,261,2.2,3.6,17,0.00,,CLR,0.00,VWS V14.00,2013-04-25 19:43:00,
2013-04-25 12:49:00,68.9,22.3,29.32,WNW,286,2.2,4.0,17,0.00,,CLR,0.00,VWS V14.00,2013-04-25 19:49:00,
2013-04-25 12:55:00,68.7,22.2,29.32,WNW,282,2.2,3.6,17,0.00,,CLR,0.00,VWS V14.00,2013-04-25 19:55:00,
2013-04-25 13:00:00,69.1,22.5,29.32,SW,221,2.2,3.6,17,0.00,,CLR,0.00,VWS V14.00,2013-04-25 20:00:00,
2013-04-25 13:05:00,69.6,22.9,29.32,SSW,195,2.7,3.6,17,0.00,,CLR,0.00,VWS V14.00,2013-04-25 20:05:00,
2013-04-25 13:11:00,69.8,23.1,29.32,SW,234,2.2,4.0,17,0.00,,CLR,0.00,VWS V14.00,2013-04-25 20:11:00,
2013-04-25 13:17:00,70.0,23.2,29.32,SSW,206,2.2,3.6,17,0.00,,CLR,0.00,VWS V14.00,2013-04-25 20:17:00,
2013-04-25 13:22:00,70.3,23.5,29.32,SW,214,3.1,3.6,17,0.00,,CLR,0.00,VWS V14.00,2013-04-25 20:22:00,
2013-04-25 13:28:00,70.7,23.8,29.32,SSW,208,2.2,3.1,17,0.00,,CLR,0.00,VWS V14.00,2013-04-25 20:28:00,
2013-04-25 13:33:00,70.3,23.5,29.32,WSW,239,2.7,3.6,17,0.00,,CLR,0.00,VWS V14.00,2013-04-25 20:33:00,
2013-04-25 13:39:00,70.0,23.2,29.32,SSW,204,3.1,3.6,17,0.00,,CLR,0.00,VWS V14.00,2013-04-25 20:39:00,
2013-04-25 13:44:00,70.5,23.6,29.32,South,187,2.2,3.1,17,0.00,,CLR,0.00,VWS V14.00,2013-04-25 20:44:00,
2013-04-25 13:50:00,71.1,24.1,29.32,WSW,242,3.1,3.1,17,0.00,,CLR,0.00,VWS V14.00,2013-04-25 20:50:00,
2013-04-25 13:56:00,71.2,24.2,29.32,SSW,192,3.1,3.6,17,0.00,,CLR,0.00,VWS V14.00,2013-04-25 20:56:00,
2013-04-25 14:01:00,71.1,24.1,29.32,WNW,295,0.0,2.2,17,0.00,,CLR,0.00,VWS V14.00,2013-04-25 21:01:00,
2013-04-25 14:07:00,70.9,23.9,29.32,SSW,207,3.1,3.1,17,0.00,,CLR,0.00,VWS V14.00,2013-04-25 21:07:00,
2013-04-25 14:12:00,70.5,23.6,29.32,West,263,0.0,2.2,17,0.00,,CLR,0.00,VWS V14.00,2013-04-25 21:12:00,
2013-04-25 14:18:00,69.8,23.1,29.32,NNW,329,3.1,4.0,17,0.00,,CLR,0.00,VWS V14.00,2013-04-25 21:18:00,
2013-04-25 14:24:00,69.6,22.9,29.32,North,357,4.5,4.5,17,0.00,,CLR,0.00,VWS V14.00,2013-04-25 21:24:00,
2013-04-25 14:30:00,69.6,22.9,29.32,NNW,337,2.7,5.4,17,0.00,,CLR,0.00,VWS V14.00,2013-04-25 21:30:00,
2013-04-25 14:35:00,69.8,23.1,29.32,WNW,286,3.1,4.0,17,0.00,,CLR,0.00,VWS V14.00,2013-04-25 21:35:00,
2013-04-25 14:41:00,70.0,23.2,29.32,SW,235,2.7,4.0,17,0.00,,CLR,0.00,VWS V14.00,2013-04-25 21:41:00,
2013-04-25 14:46:00,70.2,23.4,29.32,SW,223,2.2,3.1,17,0.00,,CLR,0.00,VWS V14.00,2013-04-25 21:46:00,
2013-04-25 14:52:00,70.3,23.5,29.32,West,270,2.7,3.1,17,0.00,,CLR,0.00,VWS V14.00,2013-04-25 21:52:00,
2013-04-25 14:57:00,70.5,23.6,29.32,SW,227,0.0,3.1,17,0.00,,CLR,0.00,VWS V14.00,2013-04-25 21:57:00,
2013-04-25 15:02:00,70.9,23.9,29.32,SSW,198,2.2,3.6,17,0.00,,CLR,0.00,VWS V14.00,2013-04-25 22:02:00,
2013-04-25 15:08:00,70.9,23.9,29.32,SSE,157,2.2,2.7,17,0.00,,CLR,0.00,VWS V14.00,2013-04-25 22:08:00,
2013-04-25 15:13:00,71.1,24.1,29.32,NW,311,0.0,2.2,17,0.00,,CLR,0.00,VWS V14.00,2013-04-25 22:13:00,
2013-04-25 15:19:00,71.1,24.1,29.32,SSE,155,3.6,4.0,17,0.00,,CLR,0.00,VWS V14.00,2013-04-25 22:19:00,
2013-04-25 15:25:00,71.1,24.1,29.32,South,181,0.0,0.0,17,0.00,,CLR,0.00,VWS V14.00,2013-04-25 22:25:00,
2013-04-25 15:30:00,71.2,24.2,29.32,NNW,338,0.0,0.0,17,0.00,,CLR,0.00,VWS V14.00,2013-04-25 22:30:00,
2013-04-25 15:36:00,71.2,24.2,29.32,NE,36,0.0,3.1,17,0.00,,CLR,0.00,VWS V14.00,2013-04-25 22:36:00,
2013-04-25 15:41:00,71.1,24.1,29.32,NW,318,0.0,4.0,17,0.00,,CLR,0.00,VWS V14.00,2013-04-25 22:41:00,
2013-04-25 15:47:00,70.9,23.9,29.32,NNE,18,0.0,2.7,17,0.00,,CLR,0.00,VWS V14.00,2013-04-25 22:47:00,
2013-04-25 15:53:00,70.9,23.9,29.32,North,357,0.0,0.0,17,0.00,,CLR,0.00,VWS V14.00,2013-04-25 22:53:00,
2013-04-25 15:58:00,71.2,24.2,29.32,West,271,2.2,2.7,17,0.00,,CLR,0.00,VWS V14.00,2013-04-25 22:58:00,
2013-04-25 16:04:00,71.4,24.4,29.32,SSW,205,2.2,3.6,17,0.00,,CLR,0.00,VWS V14.00,2013-04-25 23:04:00,
2013-04-25 16:09:00,71.2,24.2,29.32,SW,226,3.1,4.9,17,0.00,,CLR,0.00,VWS V14.00,2013-04-25 23:09:00,
2013-04-25 16:15:00,71.4,24.4,29.32,NW,326,3.6,3.6,17,0.00,,CLR,0.00,VWS V14.00,2013-04-25 23:15:00,
2013-04-25 16:20:00,71.4,24.4,29.32,NW,312,3.1,3.1,17,0.00,,CLR,0.00,VWS V14.00,2013-04-25 23:20:00,
2013-04-25 16:26:00,71.2,24.2,29.32,West,260,3.6,5.4,17,0.00,,CLR,0.00,VWS V14.00,2013-04-25 23:26:00,
2013-04-25 16:32:00,71.4,24.4,29.32,West,271,3.6,4.9,17,0.00,,CLR,0.00,VWS V14.00,2013-04-25 23:32:00,
2013-04-25 16:37:00,71.8,23.2,29.32,SW,221,3.1,3.6,16,0.00,,CLR,0.00,VWS V14.00,2013-04-25 23:37:00,
2013-04-25 16:43:00,72.0,23.4,29.32,SW,220,0.0,2.7,16,0.00,,CLR,0.00,VWS V14.00,2013-04-25 23:43:00,
2013-04-25 16:48:00,72.0,23.4,29.32,WSW,238,2.7,2.7,16,0.00,,CLR,0.00,VWS V14.00,2013-04-25 23:48:00,
2013-04-25 16:54:00,71.8,23.2,29.32,ESE,103,3.1,3.6,16,0.00,,CLR,0.00,VWS V14.00,2013-04-25 23:54:00,
2013-04-25 17:00:00,71.6,23.1,29.32,West,277,2.7,4.0,16,0.00,,CLR,0.00,VWS V14.00,2013-04-26 00:00:00,
2013-04-25 17:05:00,71.8,23.2,29.32,South,174,2.7,2.7,16,0.00,,CLR,0.00,VWS V14.00,2013-04-26 00:05:00,
2013-04-25 17:11:00,71.8,23.2,29.32,SW,223,0.0,3.1,16,0.00,,CLR,0.00,VWS V14.00,2013-04-26 00:11:00,
2013-04-25 17:17:00,71.8,23.2,29.32,WSW,256,3.1,3.6,16,0.00,,CLR,0.00,VWS V14.00,2013-04-26 00:17:00,
2013-04-25 17:22:00,71.6,23.1,29.32,NNW,328,3.1,3.6,16,0.00,,CLR,0.00,VWS V14.00,2013-04-26 00:22:00,
2013-04-25 17:28:00,71.6,23.1,29.32,NNW,338,0.0,0.0,16,0.00,,CLR,0.00,VWS V14.00,2013-04-26 00:28:00,
2013-04-25 17:33:00,71.8,23.2,29.32,NNW,328,4.9,4.9,16,0.00,,CLR,0.00,VWS V14.00,2013-04-26 00:33:00,
2013-04-25 17:39:00,71.8,23.2,29.32,SSW,200,0.0,0.0,16,0.00,,CLR,0.00,VWS V14.00,2013-04-26 00:39:00,
2013-04-25 17:44:00,71.8,23.2,29.32,SSW,200,0.0,2.7,16,0.00,,CLR,0.00,VWS V14.00,2013-04-26 00:44:00,
2013-04-25 17:50:00,72.0,23.4,29.32,South,174,2.2,3.1,16,0.00,,CLR,0.00,VWS V14.00,2013-04-26 00:50:00,
2013-04-25 17:56:00,72.0,23.4,29.32,WNW,292,0.0,0.0,16,0.00,,CLR,0.00,VWS V14.00,2013-04-26 00:56:00,
2013-04-25 18:01:00,71.8,23.2,29.32,WNW,294,0.0,0.0,16,0.00,,CLR,0.00,VWS V14.00,2013-04-26 01:01:00,
2013-04-25 18:07:00,71.6,23.1,29.32,West,267,0.0,0.0,16,0.00,,CLR,0.00,VWS V14.00,2013-04-26 01:07:00,
2013-04-25 18:12:00,71.6,23.1,29.32,NNE,16,0.0,0.0,16,0.00,,CLR,0.00,VWS V14.00,2013-04-26 01:12:00,
2013-04-25 18:18:00,71.6,23.1,29.32,NNE,15,0.0,0.0,16,0.00,,CLR,0.00,VWS V14.00,2013-04-26 01:18:00,
2013-04-25 18:24:00,71.6,23.1,29.32,NNE,16,0.0,0.0,16,0.00,,CLR,0.00,VWS V14.00,2013-04-26 01:24:00,
2013-04-25 18:29:00,71.6,23.1,29.32,West,280,0.0,2.2,16,0.00,,CLR,0.00,VWS V14.00,2013-04-26 01:29:00,
2013-04-25 18:35:00,71.1,24.1,29.32,West,271,0.0,0.0,17,0.00,,CLR,0.00,VWS V14.00,2013-04-26 01:35:00,
2013-04-25 18:41:00,70.9,23.9,29.32,SW,217,0.0,0.0,17,0.00,,CLR,0.00,VWS V14.00,2013-04-26 01:41:00,
2013-04-25 18:46:00,70.9,23.9,29.32,West,280,0.0,3.1,17,0.00,,CLR,0.00,VWS V14.00,2013-04-26 01:46:00,
2013-04-25 18:52:00,70.9,23.9,29.32,NW,319,0.0,0.0,17,0.00,,CLR,0.00,VWS V14.00,2013-04-26 01:52:00,
2013-04-25 18:57:00,70.9,23.9,29.32,NW,307,3.6,3.6,17,0.00,,CLR,0.00,VWS V14.00,2013-04-26 01:57:00,
2013-04-25 19:03:00,70.7,23.8,29.32,NW,307,0.0,0.0,17,0.00,,CLR,0.00,VWS V14.00,2013-04-26 02:03:00,
2013-04-25 19:09:00,70.2,23.4,29.32,NW,307,0.0,0.0,17,0.00,,CLR,0.00,VWS V14.00,2013-04-26 02:09:00,
2013-04-25 19:14:00,69.4,22.8,29.32,NW,320,3.1,3.1,17,0.00,,CLR,0.00,VWS V14.00,2013-04-26 02:14:00,
2013-04-25 19:20:00,68.7,22.2,29.32,NW,313,0.0,0.0,17,0.00,,CLR,0.00,VWS V14.00,2013-04-26 02:20:00,
2013-04-25 19:25:00,68.0,21.6,29.32,NW,313,0.0,0.0,17,0.00,,CLR,0.00,VWS V14.00,2013-04-26 02:25:00,
2013-04-25 19:31:00,67.5,21.2,29.32,NW,313,0.0,0.0,17,0.00,,CLR,0.00,VWS V14.00,2013-04-26 02:31:00,
2013-04-25 19:37:00,66.6,20.4,29.32,NW,313,0.0,0.0,17,0.00,,CLR,0.00,VWS V14.00,2013-04-26 02:37:00,
2013-04-25 19:42:00,65.5,20.9,29.32,NW,313,0.0,0.0,18,0.00,,CLR,0.00,VWS V14.00,2013-04-26 02:42:00,
2013-04-25 19:48:00,64.8,20.3,29.32,NW,313,0.0,0.0,18,0.00,,CLR,0.00,VWS V14.00,2013-04-26 02:48:00,
2013-04-25 19:53:00,63.9,19.6,29.32,NW,313,0.0,0.0,18,0.00,,CLR,0.00,VWS V14.00,2013-04-26 02:53:00,
2013-04-25 19:59:00,63.0,22.5,29.32,NW,313,0.0,0.0,21,0.00,,CLR,0.00,VWS V14.00,2013-04-26 02:59:00,
2013-04-25 20:04:00,62.2,21.9,29.32,NW,313,0.0,0.0,21,0.00,,CLR,0.00,VWS V14.00,2013-04-26 03:04:00,
2013-04-25 20:10:00,61.5,21.2,29.32,NW,313,0.0,0.0,21,0.00,,CLR,0.00,VWS V14.00,2013-04-26 03:10:00,
2013-04-25 20:15:00,60.6,23.6,29.32,NW,313,0.0,0.0,24,0.00,,CLR,0.00,VWS V14.00,2013-04-26 03:15:00,
2013-04-25 20:21:00,59.9,23.0,29.32,NW,313,0.0,0.0,24,0.00,,CLR,0.00,VWS V14.00,2013-04-26 03:21:00,
2013-04-25 20:26:00,59.2,22.4,29.32,NW,313,0.0,0.0,24,0.00,,CLR,0.00,VWS V14.00,2013-04-26 03:26:00,
2013-04-25 20:31:00,58.5,22.8,29.32,NW,313,0.0,0.0,25,0.00,,CLR,0.00,VWS V14.00,2013-04-26 03:31:00,
2013-04-25 20:37:00,57.9,22.3,29.32,NW,313,0.0,0.0,25,0.00,,CLR,0.00,VWS V14.00,2013-04-26 03:37:00,
2013-04-25 20:42:00,57.4,21.9,29.32,NW,313,0.0,0.0,25,0.00,,CLR,0.00,VWS V14.00,2013-04-26 03:42:00,
2013-04-25 20:48:00,56.8,22.3,29.32,NW,313,0.0,0.0,26,0.00,,CLR,0.00,VWS V14.00,2013-04-26 03:48:00,
2013-04-25 20:54:00,56.3,21.9,29.32,NW,313,0.0,0.0,26,0.00,,CLR,0.00,VWS V14.00,2013-04-26 03:54:00,
2013-04-25 21:00:00,55.6,22.1,29.32,NW,313,0.0,0.0,27,0.00,,CLR,0.00,VWS V14.00,2013-04-26 04:00:00,
2013-04-25 21:01:00,55.6,22.1,29.32,NW,313,0.0,0.0,27,0.00,,CLR,0.00,VWS V14.00,2013-04-26 04:01:00,
2013-04-25 21:02:00,55.4,22.0,29.32,NW,313,0.0,0.0,27,0.00,,CLR,0.00,VWS V14.00,2013-04-26 04:02:00,
2013-04-25 21:03:00,55.2,21.8,29.32,NW,313,0.0,0.0,27,0.00,,CLR,0.00,VWS V14.00,2013-04-26 04:03:00,
2013-04-25 21:05:00,55.2,21.8,29.32,NW,313,0.0,0.0,27,0.00,,CLR,0.00,VWS V14.00,2013-04-26 04:05:00,
2013-04-25 21:07:00,54.9,21.5,29.32,NW,313,0.0,0.0,27,0.00,,CLR,0.00,VWS V14.00,2013-04-26 04:07:00,
2013-04-25 21:13:00,54.5,21.2,29.32,NW,313,0.0,0.0,27,0.00,,CLR,0.00,VWS V14.00,2013-04-26 04:13:00,
2013-04-25 21:19:00,54.3,21.9,29.32,NW,313,0.0,0.0,28,0.00,,CLR,0.00,VWS V14.00,2013-04-26 04:19:00,
2013-04-25 21:24:00,54.1,21.8,29.32,NW,313,0.0,0.0,28,0.00,,CLR,0.00,VWS V14.00,2013-04-26 04:24:00,
2013-04-25 21:30:00,54.0,21.6,29.32,NW,313,0.0,0.0,28,0.00,,CLR,0.00,VWS V14.00,2013-04-26 04:30:00,
2013-04-25 21:36:00,53.6,22.1,29.32,NW,313,0.0,0.0,29,0.00,,CLR,0.00,VWS V14.00,2013-04-26 04:36:00,
2013-04-25 21:42:00,53.4,22.8,29.32,NW,313,0.0,0.0,30,0.00,,CLR,0.00,VWS V14.00,2013-04-26 04:42:00,
2013-04-25 21:47:00,53.1,22.5,29.32,NW,313,0.0,0.0,30,0.00,,CLR,0.00,VWS V14.00,2013-04-26 04:47:00,
2013-04-25 21:52:00,52.9,22.3,29.32,NW,313,0.0,0.0,30,0.00,,CLR,0.00,VWS V14.00,2013-04-26 04:52:00,
2013-04-25 21:58:00,52.5,22.8,29.32,NW,313,0.0,0.0,31,0.00,,CLR,0.00,VWS V14.00,2013-04-26 04:58:00,
2013-04-25 22:04:00,52.3,22.6,29.32,NW,313,0.0,0.0,31,0.00,,CLR,0.00,VWS V14.00,2013-04-26 05:04:00,
2013-04-25 22:10:00,52.2,22.5,29.32,NW,313,0.0,0.0,31,0.00,,CLR,0.00,VWS V14.00,2013-04-26 05:10:00,
2013-04-25 22:15:00,52.0,23.1,29.32,NW,313,0.0,0.0,32,0.00,,CLR,0.00,VWS V14.00,2013-04-26 05:15:00,
2013-04-25 22:20:00,51.6,23.5,29.32,NW,313,0.0,0.0,33,0.00,,CLR,0.00,VWS V14.00,2013-04-26 05:20:00,
2013-04-25 22:25:00,51.3,23.2,29.32,NW,313,0.0,0.0,33,0.00,,CLR,0.00,VWS V14.00,2013-04-26 05:25:00,
2013-04-25 22:31:00,50.9,23.5,29.32,NW,313,0.0,0.0,34,0.00,,CLR,0.00,VWS V14.00,2013-04-26 05:31:00,
2013-04-25 22:36:00,50.7,23.4,29.32,NW,313,0.0,0.0,34,0.00,,CLR,0.00,VWS V14.00,2013-04-26 05:36:00,
2013-04-25 22:41:00,50.4,24.4,29.32,NW,313,0.0,0.0,36,0.00,,CLR,0.00,VWS V14.00,2013-04-26 05:41:00,
2013-04-25 22:47:00,50.2,24.3,29.32,NW,313,0.0,0.0,36,0.00,,CLR,0.00,VWS V14.00,2013-04-26 05:47:00,
2013-04-25 22:53:00,50.2,24.3,29.32,NW,313,0.0,0.0,36,0.00,,CLR,0.00,VWS V14.00,2013-04-26 05:53:00,
2013-04-25 22:58:00,50.0,24.1,29.32,NW,313,0.0,0.0,36,0.00,,CLR,0.00,VWS V14.00,2013-04-26 05:58:00,
2013-04-25 23:04:00,50.0,24.1,29.32,NW,313,0.0,0.0,36,0.00,,CLR,0.00,VWS V14.00,2013-04-26 06:04:00,
2013-04-25 23:09:00,49.6,24.5,29.32,NW,313,0.0,0.0,37,0.00,,CLR,0.00,VWS V14.00,2013-04-26 06:09:00,
2013-04-25 23:15:00,49.5,24.3,29.32,NW,313,0.0,0.0,37,0.00,,CLR,0.00,VWS V14.00,2013-04-26 06:15:00,
2013-04-25 23:20:00,49.3,24.1,29.32,NW,313,0.0,0.0,37,0.00,,CLR,0.00,VWS V14.00,2013-04-26 06:20:00,
2013-04-25 23:25:00,49.3,24.8,29.32,NW,313,0.0,0.0,38,0.00,,CLR,0.00,VWS V14.00,2013-04-26 06:25:00,
2013-04-25 23:30:00,49.1,24.6,29.32,North,357,0.0,0.0,38,0.00,,CLR,0.00,VWS V14.00,2013-04-26 06:30:00,
2013-04-25 23:35:00,49.1,24.6,29.32,North,357,0.0,0.0,38,0.00,,CLR,0.00,VWS V14.00,2013-04-26 06:35:00,
2013-04-25 23:41:00,49.1,24.6,29.32,North,357,0.0,0.0,38,0.00,,CLR,0.00,VWS V14.00,2013-04-26 06:41:00,
2013-04-25 23:46:00,49.1,24.6,29.32,North,357,0.0,0.0,38,0.00,,CLR,0.00,VWS V14.00,2013-04-26 06:46:00,
2013-04-25 23:51:00,49.3,24.8,29.32,North,357,0.0,0.0,38,0.00,,CLR,0.00,VWS V14.00,2013-04-26 06:51:00,
2013-04-25 23:57:00,49.6,25.1,29.32,North,357,0.0,0.0,38,0.00,,CLR,0.00,VWS V14.00,2013-04-26 06:57:00,